Archival Weather

Republic

Farmingdale, New York (KFRG)

Report from: Saturday, February 17, 2024 1:53 PM EST
Current time: Friday, June 21, 2024 9:20 PM EDT

Current weather – Weather history – Daily summaries
Weather forecast

Temperature1.1°C (34.0°F)
Wind chill-2.7°C (27.2°F)
Dew point-3.9°C (25.0°F)
Winds 7 kts (3.6 m/s, 8.1 mph) West-Northwest (290°)
Visibility10 mi. (16.1 km)
Clouds Scattered clouds 2,600 ft. (792 m)
Ceiling: Broken clouds 3,300 ft. (1,006 m)
Broken clouds 6,000 ft. (1,829 m)
Altimeter29.73 in.Hg (1007 mB)
Relative humidity69 %
Density altitude-1,395 ft. (-425 m)
Sea-level pressure100.7 kPa (1007 mB, 29.72 in.Hg)
Remarks Automated weather observing station without precipitation discriminator
Flight conditions Visual Meteorological Conditions
Raw dataKFRG 171853Z 29007KT 10SM SCT026 BKN033 BKN060 01/M04 A2973 RMK AO1 SLP066 T00111039
An error has occurred. This application may no longer respond until reloaded. Reload 🗙